createdAt,value
2022-08-10T00:01:53.737Z,17.86
2022-08-10T00:04:22.436Z,18.05
2022-08-10T00:06:53.573Z,17.77
2022-08-10T00:09:21.027Z,17.75
2022-08-10T00:11:47.456Z,17.90
2022-08-10T00:14:13.885Z,17.79
2022-08-10T00:16:40.463Z,17.93
2022-08-10T00:19:06.890Z,17.92
2022-08-10T00:21:33.303Z,17.86
2022-08-10T00:23:59.725Z,17.80
2022-08-10T00:26:26.119Z,17.75
2022-08-10T00:28:52.554Z,17.67
2022-08-10T00:31:18.964Z,17.85
2022-08-10T00:33:45.378Z,17.75
2022-08-10T00:36:11.912Z,17.48
2022-08-10T00:38:38.329Z,17.53
2022-08-10T00:41:04.911Z,17.70
2022-08-10T00:43:31.553Z,17.59
2022-08-10T00:45:59.129Z,17.40
2022-08-10T00:48:28.311Z,17.41
2022-08-10T00:50:54.984Z,17.24
2022-08-10T00:53:21.544Z,17.18
2022-08-10T00:57:12.725Z,17.13
2022-08-10T00:58:35.466Z,17.25
2022-08-10T01:01:02.019Z,17.32
2022-08-10T01:04:36.497Z,17.27
2022-08-10T01:06:32.451Z,17.42
2022-08-10T01:09:21.832Z,17.47
2022-08-10T01:12:34.271Z,17.32
2022-08-10T01:14:52.111Z,17.25
2022-08-10T01:17:50.384Z,17.32
2022-08-10T01:20:30.039Z,16.96
2022-08-10T01:23:25.433Z,16.99
2022-08-10T01:26:30.373Z,17.11
2022-08-10T01:29:25.207Z,17.12
2022-08-10T01:31:54.006Z,17.25
2022-08-10T01:34:34.113Z,17.38
2022-08-10T01:37:05.595Z,17.38
2022-08-10T01:39:39.701Z,17.13
2022-08-10T01:42:07.032Z,16.99
2022-08-10T01:44:39.854Z,17.01
2022-08-10T01:47:30.117Z,17.20
2022-08-10T01:50:02.600Z,17.31
2022-08-10T01:52:29.823Z,17.11
2022-08-10T01:54:57.150Z,17.07
2022-08-10T01:57:24.690Z,16.92
2022-08-10T01:59:54.542Z,16.87
2022-08-10T02:02:29.156Z,16.71
2022-08-10T02:04:55.926Z,16.71
2022-08-10T02:07:25.400Z,16.91
2022-08-10T02:09:53.724Z,17.02
2022-08-10T02:12:23.240Z,16.97
2022-08-10T02:14:59.470Z,16.64
2022-08-10T02:17:58.687Z,16.51
2022-08-10T02:20:18.794Z,16.53
2022-08-10T02:22:49.343Z,16.50
2022-08-10T02:25:42.676Z,16.60
2022-08-10T02:28:05.091Z,16.79
2022-08-10T02:30:32.260Z,16.69
2022-08-10T02:32:59.028Z,16.73
2022-08-10T02:35:27.120Z,16.73
2022-08-10T02:38:00.204Z,16.69
2022-08-10T02:45:02.708Z,16.46
2022-08-10T02:45:15.406Z,16.38
2022-08-10T02:46:18.421Z,16.24
2022-08-10T02:48:52.035Z,16.32
2022-08-10T02:52:06.855Z,16.56
2022-08-10T02:54:22.129Z,16.26
2022-08-10T02:56:55.465Z,16.05
2022-08-10T02:59:39.667Z,16.15
2022-08-10T03:02:08.826Z,16.01
2022-08-10T03:04:54.580Z,16.16
2022-08-10T03:07:43.434Z,16.23
2022-08-10T03:10:14.530Z,16.32
2022-08-10T03:12:42.587Z,16.30
2022-08-10T03:15:15.595Z,16.24
2022-08-10T03:17:57.403Z,16.04
2022-08-10T03:20:38.118Z,16.12
2022-08-10T03:23:11.638Z,16.10
2022-08-10T03:25:37.964Z,16.03
2022-08-10T03:28:04.888Z,15.96
2022-08-10T03:30:33.937Z,15.97
2022-08-10T03:33:03.166Z,16.24
2022-08-10T03:35:29.680Z,16.22
2022-08-10T03:37:59.170Z,16.22
2022-08-10T03:40:45.798Z,16.20
2022-08-10T03:43:16.014Z,15.82
2022-08-10T03:45:49.421Z,15.76
2022-08-10T03:48:23.878Z,15.73
2022-08-10T03:50:52.021Z,15.83
2022-08-10T03:53:24.332Z,15.83
2022-08-10T03:56:30.341Z,15.85
2022-08-10T03:58:52.584Z,15.80
2022-08-10T04:01:19.645Z,15.67
2022-08-10T04:03:46.151Z,15.80
2022-08-10T04:06:12.834Z,15.94
2022-08-10T04:08:43.206Z,15.93
2022-08-10T04:11:10.445Z,15.83
2022-08-10T04:13:37.916Z,15.73
2022-08-10T04:16:07.454Z,15.91
2022-08-10T04:18:34.181Z,15.86
2022-08-10T04:21:12.643Z,15.65
2022-08-10T04:23:43.590Z,15.73
2022-08-10T04:26:11.675Z,15.94
2022-08-10T04:28:38.373Z,15.75
2022-08-10T04:31:06.463Z,15.80
2022-08-10T04:33:33.434Z,15.78
2022-08-10T04:36:00.733Z,15.74
2022-08-10T04:38:27.726Z,15.83
2022-08-10T04:40:54.322Z,15.75
2022-08-10T04:43:20.919Z,15.62
2022-08-10T04:45:51.694Z,15.62
2022-08-10T04:48:40.551Z,15.87
2022-08-10T04:51:07.941Z,15.86
2022-08-10T04:54:03.345Z,15.77
2022-08-10T04:56:31.600Z,15.77
2022-08-10T04:58:59.120Z,15.80
2022-08-10T05:01:26.480Z,15.70
2022-08-10T05:04:37.568Z,15.78
2022-08-10T05:06:39.380Z,15.95
2022-08-10T05:09:05.784Z,15.93
2022-08-10T05:11:32.186Z,15.88
2022-08-10T05:13:58.619Z,15.78
2022-08-10T05:16:31.622Z,15.94
2022-08-10T05:18:58.656Z,15.93
2022-08-10T05:22:02.524Z,16.01
2022-08-10T05:24:11.682Z,15.96
2022-08-10T05:26:55.323Z,16.03
2022-08-10T05:29:24.500Z,16.18
2022-08-10T05:31:51.217Z,16.20
2022-08-10T05:34:20.323Z,16.29
2022-08-10T05:36:47.993Z,16.18
2022-08-10T05:39:15.309Z,16.14
2022-08-10T05:41:46.105Z,16.19
2022-08-10T05:44:14.303Z,16.22
2022-08-10T05:46:41.194Z,16.34
2022-08-10T05:49:07.606Z,16.58
2022-08-10T05:51:34.011Z,16.62
2022-08-10T05:54:06.070Z,16.70
2022-08-10T05:56:54.970Z,16.70
2022-08-10T06:00:12.648Z,16.84
2022-08-10T06:02:32.079Z,16.95
2022-08-10T06:04:57.519Z,17.02
2022-08-10T06:07:27.281Z,17.17
2022-08-10T06:09:58.662Z,17.11
2022-08-10T06:12:29.805Z,17.24
2022-08-10T06:15:05.989Z,17.36
2022-08-10T06:17:37.203Z,17.47
2022-08-10T06:20:04.095Z,17.48
2022-08-10T06:22:33.916Z,17.58
2022-08-10T06:27:50.841Z,17.89
2022-08-10T06:30:21.003Z,17.87
2022-08-10T06:32:51.936Z,17.89
2022-08-10T06:35:19.266Z,18.05
2022-08-10T06:37:50.601Z,18.25
2022-08-10T06:40:19.098Z,18.36
2022-08-10T06:42:48.595Z,18.44
2022-08-10T06:45:21.257Z,18.45
2022-08-10T06:47:59.555Z,18.53
2022-08-10T06:50:59.082Z,18.48
2022-08-10T06:53:53.305Z,18.75
2022-08-10T06:56:18.786Z,18.88
2022-08-10T06:58:49.744Z,19.08
2022-08-10T07:01:20.830Z,19.22
2022-08-10T07:03:54.279Z,19.36
2022-08-10T07:06:21.254Z,19.49
2022-08-10T07:08:49.020Z,19.62
2022-08-10T07:11:15.871Z,19.80
2022-08-10T07:14:17.434Z,19.78
2022-08-10T07:16:30.385Z,19.98
2022-08-10T07:18:58.094Z,20.11
2022-08-10T07:21:26.712Z,20.37
2022-08-10T07:23:58.185Z,20.23
2022-08-10T07:26:27.338Z,20.38
2022-08-10T07:28:54.340Z,20.32
2022-08-10T07:31:55.236Z,20.35
2022-08-10T07:34:09.225Z,20.42
2022-08-10T07:36:37.069Z,20.66
2022-08-10T07:39:05.228Z,20.71
2022-08-10T07:41:33.150Z,20.70
2022-08-10T07:44:03.013Z,20.89
2022-08-10T07:46:30.416Z,21.12
2022-08-10T07:49:19.270Z,21.30
2022-08-10T07:51:54.539Z,21.28
2022-08-10T07:54:23.398Z,21.36
2022-08-10T07:56:54.112Z,21.48
2022-08-10T07:59:23.661Z,21.69
2022-08-10T08:01:53.692Z,21.86
2022-08-10T08:04:22.322Z,21.88
2022-08-10T08:06:50.188Z,22.05
2022-08-10T08:09:18.639Z,22.08
2022-08-10T08:11:46.519Z,22.17
2022-08-10T08:14:14.843Z,22.45
2022-08-10T08:16:44.316Z,22.74
2022-08-10T08:19:28.435Z,22.75
2022-08-10T08:24:10.319Z,22.94
2022-08-10T08:24:45.886Z,23.18
2022-08-10T08:27:16.065Z,23.28
2022-08-10T08:29:44.973Z,23.32
2022-08-10T08:32:12.754Z,23.30
2022-08-10T08:34:42.795Z,23.69
2022-08-10T08:37:11.127Z,23.87
2022-08-10T08:39:38.155Z,24.05
2022-08-10T08:42:19.881Z,23.84
2022-08-10T08:45:17.646Z,24.07
2022-08-10T08:48:21.189Z,24.17
2022-08-10T08:50:57.810Z,24.29
2022-08-10T08:54:01.817Z,24.41
2022-08-10T08:56:50.434Z,24.71
2022-08-10T08:59:47.224Z,24.91
2022-08-10T09:02:54.719Z,24.90
2022-08-10T09:05:58.376Z,25.28
2022-08-10T09:08:36.547Z,25.22
2022-08-10T09:11:23.676Z,25.23
2022-08-10T09:14:16.786Z,25.50
2022-08-10T09:17:00.003Z,25.97
2022-08-10T09:19:48.631Z,26.21
2022-08-10T09:22:26.123Z,26.08
2022-08-10T09:25:01.064Z,26.04
2022-08-10T09:27:43.351Z,25.89
2022-08-10T09:30:11.673Z,26.17
2022-08-10T09:33:05.413Z,26.26
2022-08-10T09:36:29.349Z,26.77
2022-08-10T09:38:57.248Z,26.68
2022-08-10T09:41:43.304Z,26.76
2022-08-10T09:44:58.238Z,27.00
2022-08-10T09:47:59.942Z,26.99
2022-08-10T09:51:16.271Z,27.33
2022-08-10T09:53:43.408Z,27.67
2022-08-10T09:56:28.247Z,28.00
2022-08-10T09:59:26.838Z,28.04
2022-08-10T10:02:18.988Z,28.12
2022-08-10T10:05:20.887Z,27.90
2022-08-10T10:07:58.222Z,27.84
2022-08-10T10:10:30.548Z,28.05
2022-08-10T10:13:00.612Z,28.46
2022-08-10T10:15:51.215Z,28.72
2022-08-10T10:18:27.264Z,28.73
2022-08-10T10:21:55.578Z,28.95
2022-08-10T10:24:34.306Z,28.87
2022-08-10T10:27:15.963Z,29.01
2022-08-10T10:30:11.823Z,28.93
2022-08-10T10:32:57.649Z,29.31
2022-08-10T10:35:37.043Z,29.34
2022-08-10T10:38:07.146Z,29.47
2022-08-10T10:40:49.951Z,29.64
2022-08-10T10:43:35.098Z,29.26
2022-08-10T10:46:23.262Z,29.22
2022-08-10T10:49:07.633Z,29.71
2022-08-10T10:51:40.507Z,29.73
2022-08-10T10:54:16.004Z,29.39
2022-08-10T10:56:54.570Z,29.61
2022-08-10T10:59:55.873Z,30.01
2022-08-10T11:02:19.364Z,30.37
2022-08-10T11:04:58.431Z,30.34
2022-08-10T11:07:31.996Z,30.81
2022-08-10T11:10:31.756Z,30.76
2022-08-10T11:13:03.029Z,31.02
2022-08-10T11:16:08.906Z,30.37
2022-08-10T11:18:35.247Z,30.70
2022-08-10T11:21:28.197Z,30.47
2022-08-10T11:24:47.820Z,30.58
2022-08-10T11:27:30.241Z,31.03
2022-08-10T11:30:05.720Z,31.21
2022-08-10T11:32:37.574Z,30.97
2022-08-10T11:35:19.581Z,30.83
2022-08-10T11:38:28.525Z,31.44
2022-08-10T11:42:07.950Z,31.44
2022-08-10T11:44:29.550Z,31.63
2022-08-10T11:46:58.927Z,31.62
2022-08-10T11:49:51.711Z,31.70
2022-08-10T11:52:35.663Z,31.26
2022-08-10T11:55:22.794Z,31.81
2022-08-10T11:57:54.047Z,32.68
2022-08-10T12:00:22.487Z,32.90
2022-08-10T12:03:00.214Z,32.42
2022-08-10T12:05:52.574Z,32.60
2022-08-10T12:10:04.616Z,32.64
2022-08-10T12:11:23.558Z,32.94
2022-08-10T12:14:23.055Z,33.35
2022-08-10T12:17:00.828Z,33.63
2022-08-10T12:19:59.836Z,33.67
2022-08-10T12:22:28.162Z,33.87
2022-08-10T12:25:08.534Z,33.51
2022-08-10T12:27:47.844Z,34.47
2022-08-10T12:30:15.809Z,34.50
2022-08-10T12:32:54.838Z,34.60
2022-08-10T12:36:01.680Z,35.23
2022-08-10T12:38:39.621Z,35.68
2022-08-10T12:41:43.561Z,35.42
2022-08-10T12:44:41.474Z,35.88
2022-08-10T12:47:23.810Z,36.24
2022-08-10T12:50:29.441Z,35.84
2022-08-10T12:52:51.765Z,36.45
2022-08-10T12:55:19.658Z,36.19
2022-08-10T12:57:52.619Z,36.08
2022-08-10T13:00:19.268Z,36.17
2022-08-10T13:02:48.944Z,36.68
2022-08-10T13:05:15.942Z,36.79
2022-08-10T13:08:24.152Z,36.88
2022-08-10T13:10:31.188Z,37.04
2022-08-10T13:12:58.494Z,36.61
2022-08-10T13:15:49.010Z,37.18
2022-08-10T13:18:19.666Z,37.81
2022-08-10T13:20:51.343Z,38.19
2022-08-10T13:23:21.605Z,37.05
2022-08-10T13:25:48.594Z,38.69
2022-08-10T13:28:37.489Z,38.89
2022-08-10T13:31:11.386Z,38.88
2022-08-10T13:34:40.734Z,38.72
2022-08-10T13:36:41.669Z,38.52
2022-08-10T13:39:08.663Z,38.35
2022-08-10T13:41:41.001Z,38.84
2022-08-10T13:44:09.691Z,37.70
2022-08-10T13:46:40.304Z,38.10
2022-08-10T13:49:08.151Z,38.84
2022-08-10T13:51:57.523Z,39.22
2022-08-10T13:54:30.611Z,38.85
2022-08-10T13:56:57.887Z,39.69
2022-08-10T14:00:34.427Z,39.91
2022-08-10T14:02:17.446Z,40.30
2022-08-10T14:04:47.850Z,39.89
2022-08-10T14:07:16.267Z,39.40
2022-08-10T14:09:43.623Z,38.78
2022-08-10T14:12:11.536Z,38.65
2022-08-10T14:14:38.928Z,37.23
2022-08-10T14:17:06.814Z,37.62
2022-08-10T14:19:37.515Z,37.15
2022-08-10T14:22:09.866Z,37.34
2022-08-10T14:24:36.606Z,38.28
2022-08-10T14:27:08.795Z,38.78
2022-08-10T14:29:42.247Z,39.00
2022-08-10T14:32:10.470Z,39.65
2022-08-10T14:36:14.765Z,40.22
2022-08-10T14:37:37.771Z,39.57
2022-08-10T14:40:11.616Z,38.86
2022-08-10T14:42:44.394Z,39.24
2022-08-10T14:45:33.014Z,37.92
2022-08-10T14:48:10.178Z,36.73
2022-08-10T14:50:38.389Z,36.28
2022-08-10T14:53:26.779Z,35.61
2022-08-10T14:55:58.670Z,34.55
2022-08-10T14:58:30.910Z,34.38
2022-08-10T15:00:58.318Z,34.22
2022-08-10T15:03:59.401Z,34.50
2022-08-10T15:06:18.321Z,33.99
2022-08-10T15:08:47.243Z,34.01
2022-08-10T15:12:14.804Z,33.66
2022-08-10T15:14:38.767Z,33.89
2022-08-10T15:16:49.785Z,33.71
2022-08-10T15:20:03.458Z,33.37
2022-08-10T15:22:18.039Z,33.14
2022-08-10T15:25:00.374Z,33.51
2022-08-10T15:27:55.063Z,33.12
2022-08-10T15:30:30.258Z,33.14
2022-08-10T15:34:02.947Z,33.18
2022-08-10T15:36:35.428Z,33.27
2022-08-10T15:39:16.456Z,33.26
2022-08-10T15:42:01.939Z,33.26
2022-08-10T15:44:38.984Z,33.22
2022-08-10T15:47:09.067Z,32.92
2022-08-10T15:49:45.204Z,32.86
2022-08-10T15:52:39.815Z,32.66
2022-08-10T15:55:42.852Z,32.77
2022-08-10T15:58:07.865Z,32.66
2022-08-10T16:00:38.155Z,32.12
2022-08-10T16:03:13.136Z,32.53
2022-08-10T16:06:02.225Z,32.47
2022-08-10T16:08:37.588Z,32.14
2022-08-10T16:11:28.197Z,32.08
2022-08-10T16:14:12.273Z,32.55
2022-08-10T16:16:40.295Z,32.64
2022-08-10T16:19:22.272Z,33.04
2022-08-10T16:21:56.232Z,32.47
2022-08-10T16:24:24.537Z,32.42
2022-08-10T16:26:52.536Z,32.37
2022-08-10T16:29:24.606Z,32.18
2022-08-10T16:31:54.393Z,32.32
2022-08-10T16:34:22.572Z,32.38
2022-08-10T16:36:57.974Z,32.58
2022-08-10T16:39:59.717Z,32.04
2022-08-10T16:42:18.562Z,32.25
2022-08-10T16:45:17.666Z,32.12
2022-08-10T16:47:46.594Z,31.95
2022-08-10T16:50:15.846Z,31.44
2022-08-10T16:52:43.732Z,31.31
2022-08-10T16:55:19.490Z,30.92
2022-08-10T16:57:53.440Z,31.15
2022-08-10T17:00:22.402Z,31.08
2022-08-10T17:02:51.432Z,31.12
2022-08-10T17:06:03.461Z,31.17
2022-08-10T17:08:08.584Z,30.69
2022-08-10T17:10:35.883Z,30.92
2022-08-10T17:13:07.308Z,30.77
2022-08-10T17:15:34.072Z,30.59
2022-08-10T17:18:03.232Z,30.41
2022-08-10T17:20:39.581Z,30.17
2022-08-10T17:23:09.755Z,30.09
2022-08-10T17:25:48.200Z,29.94
2022-08-10T17:28:34.486Z,30.00
2022-08-10T17:31:23.728Z,29.85
2022-08-10T17:33:55.612Z,29.81
2022-08-10T17:36:23.863Z,29.77
2022-08-10T17:38:51.603Z,29.69
2022-08-10T17:41:23.844Z,29.70
2022-08-10T17:44:01.911Z,29.37
2022-08-10T17:46:34.523Z,29.24
2022-08-10T17:49:06.039Z,29.42
2022-08-10T17:51:32.911Z,29.45
2022-08-10T17:54:00.503Z,29.17
2022-08-10T17:56:31.817Z,29.00
2022-08-10T17:59:00.877Z,29.12
2022-08-10T18:01:40.220Z,29.29
2022-08-10T18:04:19.300Z,29.12
2022-08-10T18:06:52.492Z,28.81
2022-08-10T18:09:27.143Z,28.78
2022-08-10T18:12:01.777Z,28.69
2022-08-10T18:14:33.025Z,28.70
2022-08-10T18:17:08.584Z,28.92
2022-08-10T18:19:35.030Z,28.71
2022-08-10T18:22:02.984Z,28.75
2022-08-10T18:24:30.172Z,28.49
2022-08-10T18:26:56.719Z,28.42
2022-08-10T18:29:27.539Z,28.41
2022-08-10T18:32:01.380Z,28.28
2022-08-10T18:34:30.161Z,28.14
2022-08-10T18:36:57.138Z,28.15
2022-08-10T18:39:35.370Z,27.97
2022-08-10T18:42:25.992Z,27.81
2022-08-10T18:44:55.330Z,27.67
2022-08-10T18:47:31.172Z,27.69
2022-08-10T18:50:12.403Z,27.61
2022-08-10T18:52:42.696Z,27.58
2022-08-10T18:55:27.173Z,27.56
2022-08-10T18:58:00.826Z,27.35
2022-08-10T19:00:34.066Z,27.21
2022-08-10T19:03:05.187Z,27.06
2022-08-10T19:05:53.116Z,26.80
2022-08-10T19:08:31.017Z,26.46
2022-08-10T19:11:03.812Z,26.23
2022-08-10T19:13:59.407Z,26.18
2022-08-10T19:16:36.346Z,25.76
2022-08-10T19:19:21.775Z,25.78
2022-08-10T19:22:09.376Z,25.48
2022-08-10T19:25:09.790Z,25.42
2022-08-10T19:28:01.166Z,25.33
2022-08-10T19:30:35.681Z,25.10
2022-08-10T19:33:18.174Z,24.84
2022-08-10T19:36:03.990Z,24.64
2022-08-10T19:39:00.868Z,24.60
2022-08-10T19:42:11.473Z,24.44
2022-08-10T19:45:00.312Z,24.47
2022-08-10T19:47:45.545Z,24.39
2022-08-10T19:50:24.119Z,24.25
2022-08-10T19:53:05.904Z,24.21
2022-08-10T19:55:43.291Z,24.14
2022-08-10T19:58:21.485Z,24.51
2022-08-10T20:00:58.995Z,24.44
2022-08-10T20:03:35.875Z,24.30
2022-08-10T20:06:20.407Z,24.09
2022-08-10T20:09:01.640Z,24.05
2022-08-10T20:11:46.155Z,23.99
2022-08-10T20:14:22.258Z,23.92
2022-08-10T20:16:51.380Z,23.85
2022-08-10T20:19:53.459Z,23.70
2022-08-10T20:22:29.360Z,23.61
2022-08-10T20:25:17.666Z,23.37
2022-08-10T20:27:59.836Z,23.31
2022-08-10T20:30:31.448Z,23.44
2022-08-10T20:33:09.119Z,23.27
2022-08-10T20:36:07.999Z,23.19
2022-08-10T20:38:58.069Z,23.14
2022-08-10T20:41:57.925Z,22.96
2022-08-10T20:44:43.358Z,22.88
2022-08-10T20:47:53.973Z,22.75
2022-08-10T20:50:46.215Z,22.84
2022-08-10T20:53:15.527Z,22.92
2022-08-10T20:55:54.459Z,22.69
2022-08-10T20:58:33.173Z,22.61
2022-08-10T21:01:19.170Z,22.55
2022-08-10T21:04:13.108Z,22.38
2022-08-10T21:06:53.253Z,22.28
2022-08-10T21:09:57.325Z,22.07
2022-08-10T21:12:44.094Z,22.11
2022-08-10T21:15:41.827Z,21.94
2022-08-10T21:18:22.219Z,21.94
2022-08-10T21:24:04.202Z,21.75
2022-08-10T21:26:46.078Z,21.64
2022-08-10T21:29:37.991Z,21.42
2022-08-10T21:32:13.626Z,21.17
2022-08-10T21:35:02.984Z,21.23
2022-08-10T21:38:08.589Z,21.16
2022-08-10T21:41:18.298Z,21.17
2022-08-10T21:44:18.277Z,21.01
2022-08-10T21:47:12.544Z,20.93
2022-08-10T21:50:18.526Z,20.95
2022-08-10T21:53:43.695Z,20.99
2022-08-10T21:56:51.047Z,21.03
2022-08-10T21:59:56.953Z,20.91
2022-08-10T22:02:49.789Z,20.86
2022-08-10T22:05:41.955Z,20.70
2022-08-10T22:08:29.537Z,20.82
2022-08-10T22:11:16.325Z,20.75
2022-08-10T22:14:04.932Z,20.68
2022-08-10T22:17:02.309Z,20.62
2022-08-10T22:19:54.759Z,20.71
2022-08-10T22:26:19.822Z,20.15
2022-08-10T22:29:09.843Z,20.29
2022-08-10T22:31:24.559Z,21.85
2022-08-10T22:31:27.041Z,20.39
2022-08-10T22:32:33.357Z,20.08
2022-08-10T22:35:18.449Z,20.36
2022-08-10T22:38:22.025Z,20.24
2022-08-10T22:41:07.987Z,20.38
2022-08-10T22:43:53.507Z,20.36
2022-08-10T22:46:43.889Z,20.14
2022-08-10T22:49:10.615Z,20.18
2022-08-10T22:51:56.687Z,19.95
2022-08-10T22:54:58.403Z,20.05
2022-08-10T22:57:43.978Z,19.98
2022-08-10T23:00:30.689Z,19.97
2022-08-10T23:03:22.103Z,20.09
2022-08-10T23:05:56.194Z,19.95
2022-08-10T23:08:45.529Z,19.84
2022-08-10T23:11:22.974Z,19.81
2022-08-10T23:14:01.287Z,19.95
2022-08-10T23:16:47.854Z,20.10
2022-08-10T23:19:22.174Z,20.00
2022-08-10T23:22:04.151Z,19.92
2022-08-10T23:24:55.061Z,19.75
2022-08-10T23:27:37.989Z,19.76
2022-08-10T23:30:17.521Z,19.57
2022-08-10T23:32:51.831Z,19.54
2022-08-10T23:36:29.875Z,19.58
2022-08-10T23:38:07.909Z,19.47
2022-08-10T23:40:35.728Z,19.56
2022-08-10T23:43:03.450Z,19.42
2022-08-10T23:45:31.477Z,19.23
2022-08-10T23:48:22.823Z,19.04
2022-08-10T23:51:16.481Z,19.21
2022-08-10T23:53:45.267Z,19.36
2022-08-10T23:56:17.184Z,19.22
2022-08-10T23:58:46.487Z,19.27
